Time;durP1;ratioP1;P1;durP2;ratioP2;P2;SDS_P1;SDS_P2;PMS_P1;PMS_P2;Temp;Humidity;BMP_temperature;BMP_pressure;BME280_temperature;BME280_humidity;BME280_pressure;Samples;Min_cycle;Max_cycle;Signal;HPM_P1;HPM_P2
2021/06/06 00:01:53;;;;;;;16.02;10.27;;;;;;;;;;5065506;28;20177;-71
2021/06/06 00:04:20;;;;;;;14.23;10.60;;;;;;;;;;5052716;28;20676;-70
2021/06/06 00:06:46;;;;;;;21.20;11.98;;;;;;;;;;5058640;28;20234;-70
2021/06/06 00:09:14;;;;;;;21.67;12.70;;;;;;;;;;5053184;28;20174;-71
2021/06/06 00:11:57;;;;;;;19.63;12.55;;;;;;;;;;5057149;28;20173;-71
2021/06/06 00:14:32;;;;;;;21.98;13.68;;;;;;;;;;5053915;28;20285;-71
2021/06/06 00:16:59;;;;;;;23.88;14.55;;;;;;;;;;5061674;28;20241;-71
2021/06/06 00:19:25;;;;;;;18.95;12.98;;;;;;;;;;5061875;28;20265;-71
2021/06/06 00:21:51;;;;;;;19.77;13.95;;;;;;;;;;5064858;28;20240;-72
2021/06/06 00:24:19;;;;;;;20.52;12.98;;;;;;;;;;5068492;28;20212;-71
2021/06/06 00:26:44;;;;;;;18.52;13.35;;;;;;;;;;5067472;28;20561;-71
2021/06/06 00:29:09;;;;;;;17.80;12.70;;;;;;;;;;5061023;28;20169;-71
2021/06/06 00:31:35;;;;;;;18.08;13.02;;;;;;;;;;5065908;28;20593;-71
2021/06/06 00:34:00;;;;;;;19.65;13.10;;;;;;;;;;5068201;28;20188;-71
2021/06/06 00:36:25;;;;;;;17.33;12.27;;;;;;;;;;5065741;28;20658;-71
2021/06/06 00:38:50;;;;;;;18.35;12.48;;;;;;;;;;5070574;28;20207;-71
2021/06/06 00:41:16;;;;;;;16.40;12.88;;;;;;;;;;5056523;28;20236;-71
2021/06/06 00:43:41;;;;;;;20.20;13.25;;;;;;;;;;5059755;28;20754;-71
2021/06/06 00:46:07;;;;;;;15.18;11.68;;;;;;;;;;5062112;28;20711;-71
2021/06/06 00:48:33;;;;;;;17.02;11.75;;;;;;;;;;5056955;28;20668;-71
2021/06/06 00:51:01;;;;;;;17.48;11.98;;;;;;;;;;5058199;28;20176;-70
2021/06/06 00:53:34;;;;;;;17.90;12.20;;;;;;;;;;5055688;28;20213;-70
2021/06/06 00:56:00;;;;;;;15.55;11.80;;;;;;;;;;5067222;28;20188;-70
2021/06/06 00:58:25;;;;;;;16.40;11.98;;;;;;;;;;5066589;28;20204;-71
2021/06/06 01:00:52;;;;;;;16.48;12.00;;;;;;;;;;5059796;28;20169;-71
2021/06/06 01:03:18;;;;;;;17.50;11.32;;;;;;;;;;5059334;28;20239;-71
2021/06/06 01:05:43;;;;;;;15.95;11.32;;;;;;;;;;5059830;28;20177;-70
2021/06/06 01:08:10;;;;;;;16.92;10.55;;;;;;;;;;5062584;28;20200;-70
2021/06/06 01:10:35;;;;;;;21.15;11.38;;;;;;;;;;5060790;28;20421;-71
2021/06/06 01:13:03;;;;;;;19.42;11.15;;;;;;;;;;5066652;28;20201;-70
2021/06/06 01:15:31;;;;;;;17.95;10.52;;;;;;;;;;5058192;28;20174;-70
2021/06/06 01:18:08;;;;;;;17.63;10.10;;;;;;;;;;5056059;28;20567;-69
2021/06/06 01:20:39;;;;;;;19.17;11.10;;;;;;;;;;5064713;28;20600;-70
2021/06/06 01:23:34;;;;;;;20.92;11.48;;;;;;;;;;5058900;28;20193;-70
2021/06/06 01:26:01;;;;;;;18.83;10.52;;;;;;;;;;5055882;28;20199;-70
2021/06/06 01:28:33;;;;;;;14.32;10.23;;;;;;;;;;5063876;28;20192;-70
2021/06/06 01:31:00;;;;;;;15.85;10.45;;;;;;;;;;5062352;28;20186;-70
2021/06/06 01:33:27;;;;;;;18.33;10.50;;;;;;;;;;5056942;28;20284;-70
2021/06/06 01:35:58;;;;;;;20.48;12.55;;;;;;;;;;5064148;28;20173;-69
2021/06/06 01:38:40;;;;;;;17.42;12.93;;;;;;;;;;5059874;28;20221;-69
2021/06/06 01:41:10;;;;;;;20.85;13.90;;;;;;;;;;5066577;28;20743;-69
2021/06/06 01:43:37;;;;;;;20.23;13.73;;;;;;;;;;5062860;28;20193;-70
2021/06/06 01:46:12;;;;;;;20.95;15.48;;;;;;;;;;5062772;28;20185;-70
2021/06/06 01:48:40;;;;;;;20.55;14.27;;;;;;;;;;5057026;28;20177;-70
2021/06/06 01:51:11;;;;;;;20.08;13.55;;;;;;;;;;5040998;28;20662;-70
2021/06/06 01:53:38;;;;;;;20.35;14.55;;;;;;;;;;5049787;28;20734;-70
2021/06/06 01:56:05;;;;;;;23.35;14.50;;;;;;;;;;5048009;28;20259;-70
2021/06/06 01:58:30;;;;;;;24.02;14.13;;;;;;;;;;5051694;28;20211;-70
2021/06/06 02:00:58;;;;;;;21.35;14.98;;;;;;;;;;5053702;28;20180;-70
2021/06/06 02:03:23;;;;;;;20.50;12.95;;;;;;;;;;5053740;28;20712;-69
2021/06/06 02:05:49;;;;;;;20.00;13.57;;;;;;;;;;5053865;28;20174;-71
2021/06/06 02:08:15;;;;;;;17.08;12.20;;;;;;;;;;5049917;28;20278;-71
2021/06/06 02:10:58;;;;;;;16.33;12.68;;;;;;;;;;5049337;28;20193;-70
2021/06/06 02:13:25;;;;;;;19.58;11.98;;;;;;;;;;5051199;28;21078;-70
2021/06/06 02:15:52;;;;;;;15.57;12.27;;;;;;;;;;5050014;28;21464;-70
2021/06/06 02:18:18;;;;;;;16.83;12.25;;;;;;;;;;5049822;28;20209;-70
2021/06/06 02:20:44;;;;;;;17.90;11.35;;;;;;;;;;5056298;28;20646;-70
2021/06/06 02:23:10;;;;;;;17.10;11.85;;;;;;;;;;5051690;28;20254;-70
2021/06/06 02:25:36;;;;;;;15.60;12.32;;;;;;;;;;5047254;28;20169;-70
2021/06/06 02:28:19;;;;;;;15.20;11.98;;;;;;;;;;5048733;28;20627;-71
2021/06/06 02:30:47;;;;;;;16.42;11.93;;;;;;;;;;5054965;28;20198;-70
2021/06/06 02:33:24;;;;;;;16.38;12.27;;;;;;;;;;5051259;28;20223;-70
2021/06/06 02:36:00;;;;;;;18.27;13.68;;;;;;;;;;5049275;28;20689;-70
2021/06/06 02:38:35;;;;;;;20.10;13.80;;;;;;;;;;5050582;28;20325;-70
2021/06/06 02:41:08;;;;;;;20.48;13.65;;;;;;;;;;5050173;28;20176;-70
2021/06/06 02:43:41;;;;;;;18.38;13.18;;;;;;;;;;5049735;28;22024;-71
2021/06/06 02:46:08;;;;;;;20.73;13.93;;;;;;;;;;5053325;28;20178;-71
2021/06/06 02:48:35;;;;;;;20.65;13.88;;;;;;;;;;5053889;28;20185;-71
2021/06/06 02:51:03;;;;;;;19.77;12.90;;;;;;;;;;5051444;28;20193;-71
2021/06/06 02:53:31;;;;;;;18.30;13.80;;;;;;;;;;5048870;28;20201;-71
2021/06/06 02:56:01;;;;;;;18.10;14.07;;;;;;;;;;5049028;28;20183;-71
2021/06/06 02:58:32;;;;;;;21.02;15.23;;;;;;;;;;5051902;28;20258;-71
2021/06/06 03:01:00;;;;;;;18.33;12.45;;;;;;;;;;5057160;28;20185;-71
2021/06/06 03:03:27;;;;;;;19.38;14.38;;;;;;;;;;5049784;28;20679;-71
2021/06/06 03:05:54;;;;;;;21.35;13.45;;;;;;;;;;5051472;28;20173;-70
2021/06/06 03:08:20;;;;;;;19.15;13.70;;;;;;;;;;5053024;28;20232;-70
2021/06/06 03:10:45;;;;;;;24.65;13.50;;;;;;;;;;5051899;28;20189;-71
2021/06/06 03:13:20;;;;;;;23.77;14.30;;;;;;;;;;5049041;28;20193;-70
2021/06/06 03:15:48;;;;;;;20.23;13.43;;;;;;;;;;5052656;28;20183;-71
2021/06/06 03:18:14;;;;;;;19.35;15.38;;;;;;;;;;5048719;28;20214;-71
2021/06/06 03:20:41;;;;;;;19.15;14.52;;;;;;;;;;5047154;28;20181;-70
2021/06/06 03:23:08;;;;;;;20.92;13.88;;;;;;;;;;5049942;28;21895;-70
2021/06/06 03:25:54;;;;;;;20.42;14.50;;;;;;;;;;5051017;28;20185;-71
2021/06/06 03:28:22;;;;;;;24.25;16.13;;;;;;;;;;5048687;28;20658;-71
2021/06/06 03:30:53;;;;;;;20.38;15.82;;;;;;;;;;5050782;28;20624;-71
2021/06/06 03:33:30;;;;;;;20.42;15.40;;;;;;;;;;5049150;28;20282;-71
2021/06/06 03:35:55;;;;;;;21.85;16.40;;;;;;;;;;5049455;28;20180;-71
2021/06/06 03:38:20;;;;;;;27.02;16.92;;;;;;;;;;5049034;28;20269;-71
2021/06/06 03:40:46;;;;;;;25.63;17.17;;;;;;;;;;5058392;28;20193;-71
2021/06/06 03:43:14;;;;;;;29.13;16.60;;;;;;;;;;5050575;28;20256;-70
2021/06/06 03:45:40;;;;;;;26.27;16.45;;;;;;;;;;5055808;28;20177;-71
2021/06/06 03:48:05;;;;;;;26.33;17.23;;;;;;;;;;5058822;28;20176;-71
2021/06/06 03:50:31;;;;;;;22.15;16.27;;;;;;;;;;5050666;28;20181;-71
2021/06/06 03:52:57;;;;;;;20.92;14.60;;;;;;;;;;5048218;28;20209;-71
2021/06/06 03:55:22;;;;;;;22.42;15.65;;;;;;;;;;5053126;28;20255;-71
2021/06/06 03:57:49;;;;;;;20.48;14.38;;;;;;;;;;5052919;28;20208;-71
2021/06/06 04:00:16;;;;;;;17.92;14.43;;;;;;;;;;5052318;28;20173;-68
2021/06/06 04:02:42;;;;;;;16.05;12.45;;;;;;;;;;5052586;28;20201;-70
2021/06/06 04:05:08;;;;;;;15.80;12.18;;;;;;;;;;5052893;28;20603;-70
2021/06/06 04:07:33;;;;;;;17.58;13.57;;;;;;;;;;5057301;28;20686;-71
2021/06/06 04:10:00;;;;;;;14.18;12.00;;;;;;;;;;5053929;28;20189;-71
2021/06/06 04:12:25;;;;;;;16.08;13.52;;;;;;;;;;5051994;28;20186;-71
2021/06/06 04:14:50;;;;;;;17.17;13.60;;;;;;;;;;5057033;28;20184;-71
2021/06/06 04:17:16;;;;;;;17.05;13.65;;;;;;;;;;5058885;28;20556;-71
2021/06/06 04:19:41;;;;;;;17.55;12.40;;;;;;;;;;5051441;28;20305;-70
2021/06/06 04:22:06;;;;;;;21.42;13.90;;;;;;;;;;5055836;28;20185;-71
2021/06/06 04:24:31;;;;;;;14.63;11.93;;;;;;;;;;5049497;28;20608;-70
2021/06/06 04:26:57;;;;;;;15.60;11.88;;;;;;;;;;5055502;28;20169;-71
2021/06/06 04:29:22;;;;;;;17.90;12.60;;;;;;;;;;5054097;28;20660;-70
2021/06/06 04:31:47;;;;;;;14.43;12.05;;;;;;;;;;5061523;28;20189;-70
2021/06/06 04:34:12;;;;;;;13.88;12.48;;;;;;;;;;5050008;28;21778;-70
2021/06/06 04:36:38;;;;;;;17.15;11.73;;;;;;;;;;5054958;28;20193;-70
2021/06/06 04:39:04;;;;;;;14.90;11.48;;;;;;;;;;5050364;28;20269;-70
2021/06/06 04:41:29;;;;;;;15.98;11.90;;;;;;;;;;5059455;28;20182;-70
2021/06/06 04:43:54;;;;;;;17.52;11.43;;;;;;;;;;5053445;28;20254;-70
2021/06/06 04:46:19;;;;;;;17.17;11.77;;;;;;;;;;5053356;28;20184;-70
2021/06/06 04:48:45;;;;;;;14.32;11.35;;;;;;;;;;5054077;28;20429;-70
2021/06/06 04:51:12;;;;;;;12.32;10.43;;;;;;;;;;5052602;28;20182;-71
2021/06/06 04:53:37;;;;;;;14.80;10.82;;;;;;;;;;5051132;28;21931;-71
2021/06/06 04:56:03;;;;;;;15.30;11.10;;;;;;;;;;5057777;28;20180;-71
2021/06/06 04:58:30;;;;;;;15.90;10.70;;;;;;;;;;5051901;28;20203;-71
2021/06/06 05:00:55;;;;;;;12.73;11.07;;;;;;;;;;5052183;28;20185;-71
2021/06/06 05:03:21;;;;;;;11.98;10.77;;;;;;;;;;5053729;28;20201;-70
2021/06/06 05:05:47;;;;;;;16.35;11.63;;;;;;;;;;5049191;28;20246;-71
2021/06/06 05:08:13;;;;;;;16.02;11.50;;;;;;;;;;5053464;28;20284;-71
2021/06/06 05:10:39;;;;;;;13.38;10.52;;;;;;;;;;5053854;28;20207;-71
2021/06/06 05:13:05;;;;;;;15.85;11.07;;;;;;;;;;5052809;28;20210;-71
2021/06/06 05:15:31;;;;;;;14.80;10.77;;;;;;;;;;5065148;28;20188;-71
2021/06/06 05:17:56;;;;;;;12.75;10.77;;;;;;;;;;5056374;28;20200;-71
2021/06/06 05:20:24;;;;;;;12.98;10.35;;;;;;;;;;5050089;28;20181;-70
2021/06/06 05:22:49;;;;;;;11.70;9.73;;;;;;;;;;5067316;28;20354;-70
2021/06/06 05:25:15;;;;;;;13.43;10.70;;;;;;;;;;5050436;28;20265;-71
2021/06/06 05:27:41;;;;;;;13.82;11.32;;;;;;;;;;5054666;28;20233;-70
2021/06/06 05:30:08;;;;;;;14.52;11.23;;;;;;;;;;5059588;28;20185;-70
2021/06/06 05:32:33;;;;;;;13.70;10.52;;;;;;;;;;5055478;28;20635;-70
2021/06/06 05:34:58;;;;;;;15.43;11.25;;;;;;;;;;5051791;28;20271;-70
2021/06/06 05:37:23;;;;;;;16.00;11.20;;;;;;;;;;5050359;28;20237;-70
2021/06/06 05:39:49;;;;;;;14.73;10.77;;;;;;;;;;5051367;28;21165;-70
2021/06/06 05:42:14;;;;;;;12.60;10.98;;;;;;;;;;5053431;28;20422;-70
2021/06/06 05:44:39;;;;;;;12.75;10.43;;;;;;;;;;5063711;28;20204;-70
2021/06/06 05:47:05;;;;;;;16.60;11.35;;;;;;;;;;5056221;28;20184;-70
2021/06/06 05:49:30;;;;;;;13.65;11.32;;;;;;;;;;5050873;28;20753;-70
2021/06/06 05:51:55;;;;;;;12.30;11.00;;;;;;;;;;5053781;28;20181;-70
2021/06/06 05:54:21;;;;;;;15.98;10.85;;;;;;;;;;5049024;28;20227;-70
2021/06/06 05:56:46;;;;;;;13.27;11.00;;;;;;;;;;5051606;28;20566;-72
2021/06/06 05:59:11;;;;;;;15.50;11.07;;;;;;;;;;5048574;28;20200;-71
2021/06/06 06:01:37;;;;;;;13.25;10.15;;;;;;;;;;5054420;28;20191;-70
2021/06/06 06:04:02;;;;;;;12.55;10.13;;;;;;;;;;5050358;28;20880;-70
2021/06/06 06:06:27;;;;;;;13.15;10.70;;;;;;;;;;5062472;28;20180;-70
2021/06/06 06:08:53;;;;;;;14.37;11.10;;;;;;;;;;5066652;28;20183;-70
2021/06/06 06:11:20;;;;;;;13.52;10.25;;;;;;;;;;5063870;28;20447;-70
2021/06/06 06:13:46;;;;;;;13.30;11.18;;;;;;;;;;5050728;28;20548;-70
2021/06/06 06:16:12;;;;;;;13.70;11.05;;;;;;;;;;5049012;28;20192;-70
2021/06/06 06:18:37;;;;;;;11.57;10.38;;;;;;;;;;5050817;28;20807;-69
2021/06/06 06:21:04;;;;;;;12.52;10.20;;;;;;;;;;5059803;28;20176;-70
2021/06/06 06:23:29;;;;;;;12.30;10.73;;;;;;;;;;5050389;28;20201;-71
2021/06/06 06:25:54;;;;;;;13.00;11.07;;;;;;;;;;5050449;28;20169;-70
2021/06/06 06:28:20;;;;;;;12.50;10.65;;;;;;;;;;5051751;28;20184;-70
2021/06/06 06:30:45;;;;;;;13.88;12.40;;;;;;;;;;5060309;28;20245;-70
2021/06/06 06:33:11;;;;;;;16.02;12.55;;;;;;;;;;5058368;28;20241;-70
2021/06/06 06:35:36;;;;;;;16.95;13.18;;;;;;;;;;5054555;28;20223;-70
2021/06/06 06:38:02;;;;;;;16.70;13.85;;;;;;;;;;5050811;28;20542;-70
2021/06/06 06:40:27;;;;;;;17.65;13.48;;;;;;;;;;5053552;28;20189;-70
2021/06/06 06:42:55;;;;;;;14.05;11.43;;;;;;;;;;5052096;28;20203;-71
2021/06/06 06:45:22;;;;;;;13.88;10.93;;;;;;;;;;5054067;28;20236;-70
2021/06/06 06:47:47;;;;;;;12.00;9.98;;;;;;;;;;5050772;28;20188;-72
2021/06/06 06:50:14;;;;;;;11.15;9.95;;;;;;;;;;5054639;28;20176;-70
2021/06/06 06:52:39;;;;;;;11.10;9.25;;;;;;;;;;5053110;28;20207;-70
2021/06/06 06:55:05;;;;;;;9.93;8.70;;;;;;;;;;5048313;28;20189;-70
2021/06/06 06:57:31;;;;;;;9.88;8.88;;;;;;;;;;5054834;28;20435;-71
2021/06/06 06:59:56;;;;;;;9.85;8.95;;;;;;;;;;5048425;28;20211;-70
2021/06/06 07:02:21;;;;;;;9.70;8.80;;;;;;;;;;5048945;28;20181;-70
2021/06/06 07:04:46;;;;;;;10.25;9.25;;;;;;;;;;5048748;28;20434;-70
2021/06/06 07:07:11;;;;;;;10.07;9.07;;;;;;;;;;5049956;28;20304;-70
2021/06/06 07:09:36;;;;;;;11.20;10.03;;;;;;;;;;5049283;28;20955;-70
2021/06/06 07:12:02;;;;;;;10.50;9.50;;;;;;;;;;5058290;28;20421;-70
2021/06/06 07:14:27;;;;;;;11.88;10.70;;;;;;;;;;5053526;28;20399;-71
2021/06/06 07:16:52;;;;;;;10.85;9.85;;;;;;;;;;5051753;28;20289;-70
2021/06/06 07:19:17;;;;;;;11.57;10.48;;;;;;;;;;5050463;28;20220;-70
2021/06/06 07:21:43;;;;;;;12.57;11.20;;;;;;;;;;5055411;28;20188;-70
2021/06/06 07:24:09;;;;;;;12.65;11.38;;;;;;;;;;5051177;28;20812;-71
2021/06/06 07:26:36;;;;;;;15.38;13.80;;;;;;;;;;5050860;28;20188;-70
2021/06/06 07:29:04;;;;;;;13.70;12.27;;;;;;;;;;5052188;28;20648;-71
2021/06/06 07:31:29;;;;;;;14.25;11.90;;;;;;;;;;5059098;28;20193;-70
2021/06/06 07:33:54;;;;;;;13.07;11.77;;;;;;;;;;5052385;28;20800;-70
2021/06/06 07:36:20;;;;;;;10.30;9.30;;;;;;;;;;5059049;28;20439;-70
2021/06/06 07:38:49;;;;;;;11.05;9.95;;;;;;;;;;5055088;28;20223;-70
2021/06/06 07:41:15;;;;;;;11.27;10.18;;;;;;;;;;5063435;28;20840;-70
2021/06/06 07:43:41;;;;;;;11.60;10.40;;;;;;;;;;5055644;28;20196;-70
2021/06/06 07:46:06;;;;;;;11.15;10.13;;;;;;;;;;5056125;28;20227;-70
2021/06/06 07:48:31;;;;;;;10.37;9.27;;;;;;;;;;5054303;28;20185;-71
2021/06/06 07:50:56;;;;;;;10.00;9.00;;;;;;;;;;5054777;28;21000;-70
2021/06/06 07:53:22;;;;;;;10.40;9.43;;;;;;;;;;5054872;28;20209;-71
2021/06/06 07:55:48;;;;;;;11.13;9.32;;;;;;;;;;5053431;28;20548;-71
2021/06/06 07:58:16;;;;;;;10.98;9.88;;;;;;;;;;5052424;28;20276;-70
2021/06/06 08:00:43;;;;;;;11.15;9.93;;;;;;;;;;5052937;28;20190;-71
2021/06/06 08:03:08;;;;;;;10.23;9.23;;;;;;;;;;5054075;28;20682;-71
2021/06/06 08:05:34;;;;;;;11.07;10.00;;;;;;;;;;5069700;28;20196;-70
2021/06/06 08:07:59;;;;;;;10.82;9.73;;;;;;;;;;5065932;28;20173;-70
2021/06/06 08:10:25;;;;;;;12.52;9.50;;;;;;;;;;5068887;28;20599;-71
2021/06/06 08:12:51;;;;;;;11.00;9.70;;;;;;;;;;5060122;28;20192;-71
2021/06/06 08:15:17;;;;;;;9.95;8.98;;;;;;;;;;5054596;28;20187;-70
2021/06/06 08:17:43;;;;;;;10.13;8.95;;;;;;;;;;5054082;28;20208;-71
2021/06/06 08:20:11;;;;;;;10.35;8.48;;;;;;;;;;5051819;28;20245;-71
2021/06/06 08:22:36;;;;;;;9.57;8.68;;;;;;;;;;5053480;28;20664;-69
2021/06/06 08:25:03;;;;;;;10.05;9.02;;;;;;;;;;5053368;28;20190;-70
2021/06/06 08:27:29;;;;;;;10.15;8.98;;;;;;;;;;5060978;28;20313;-72
2021/06/06 08:29:54;;;;;;;9.27;8.47;;;;;;;;;;5053130;28;20219;-70
2021/06/06 08:32:19;;;;;;;8.10;7.30;;;;;;;;;;5052104;28;20935;-70
2021/06/06 08:34:44;;;;;;;10.03;8.10;;;;;;;;;;5048207;28;20477;-70
2021/06/06 08:37:09;;;;;;;7.72;6.93;;;;;;;;;;5051591;28;20432;-70
2021/06/06 08:39:35;;;;;;;7.20;5.90;;;;;;;;;;5054111;28;20201;-70
2021/06/06 08:42:00;;;;;;;6.40;5.50;;;;;;;;;;5057650;28;20437;-70
2021/06/06 08:44:30;;;;;;;5.43;4.85;;;;;;;;;;5075993;28;20304;-70
2021/06/06 08:46:59;;;;;;;6.90;4.85;;;;;;;;;;5085748;28;20180;-70
2021/06/06 08:49:24;;;;;;;5.15;4.32;;;;;;;;;;5056300;28;20184;-71
2021/06/06 08:51:51;;;;;;;5.05;4.13;;;;;;;;;;5060084;28;20192;-70
2021/06/06 08:54:19;;;;;;;4.13;3.72;;;;;;;;;;5051121;28;20203;-71
2021/06/06 08:56:45;;;;;;;6.35;4.03;;;;;;;;;;5063472;28;20243;-71
2021/06/06 08:59:10;;;;;;;4.55;4.10;;;;;;;;;;5053268;28;20245;-71
2021/06/06 09:01:39;;;;;;;5.28;4.22;;;;;;;;;;5051743;28;20185;-72
2021/06/06 09:04:07;;;;;;;5.65;4.15;;;;;;;;;;5053314;28;20240;-70
2021/06/06 09:06:42;;;;;;;5.10;4.22;;;;;;;;;;5055813;28;20190;-70
2021/06/06 09:09:09;;;;;;;4.30;3.72;;;;;;;;;;5055746;28;20177;-70
2021/06/06 09:11:34;;;;;;;4.75;4.20;;;;;;;;;;5049073;28;20647;-70
2021/06/06 09:14:00;;;;;;;5.07;4.20;;;;;;;;;;5050317;28;20220;-69
2021/06/06 09:16:27;;;;;;;5.07;3.83;;;;;;;;;;5054542;28;20524;-72
2021/06/06 09:19:00;;;;;;;3.60;3.30;;;;;;;;;;5052036;28;20284;-71
2021/06/06 09:21:25;;;;;;;4.25;3.33;;;;;;;;;;5060008;28;20196;-69
2021/06/06 09:24:01;;;;;;;3.92;3.55;;;;;;;;;;5051241;28;20193;-69
2021/06/06 09:26:26;;;;;;;4.88;3.40;;;;;;;;;;5056826;28;20268;-70
2021/06/06 09:29:04;;;;;;;3.43;3.07;;;;;;;;;;5051983;28;20190;-69
2021/06/06 09:31:29;;;;;;;4.07;2.95;;;;;;;;;;5050619;28;20242;-68
2021/06/06 09:33:54;;;;;;;4.00;2.63;;;;;;;;;;5051196;28;20196;-72
2021/06/06 09:36:37;;;;;;;3.63;3.22;;;;;;;;;;5054377;28;20622;-73
2021/06/06 09:39:02;;;;;;;4.88;3.08;;;;;;;;;;5055000;28;20211;-77
2021/06/06 09:41:37;;;;;;;4.10;3.70;;;;;;;;;;5056892;28;20172;-76
2021/06/06 09:44:18;;;;;;;3.92;3.58;;;;;;;;;;5054026;28;20217;-78
2021/06/06 09:46:49;;;;;;;4.25;3.25;;;;;;;;;;5061651;28;20192;-79
2021/06/06 09:49:21;;;;;;;4.57;3.45;;;;;;;;;;5053639;28;20172;-76
2021/06/06 09:51:46;;;;;;;4.07;3.78;;;;;;;;;;5067520;28;20186;-76
2021/06/06 09:54:11;;;;;;;4.03;3.43;;;;;;;;;;5052559;28;20193;-74
2021/06/06 09:56:37;;;;;;;4.88;3.47;;;;;;;;;;5061211;28;20199;-77
2021/06/06 09:59:10;;;;;;;3.95;3.65;;;;;;;;;;5053216;28;20207;-76
2021/06/06 10:01:37;;;;;;;5.22;4.20;;;;;;;;;;5052972;28;21361;-76
2021/06/06 10:04:07;;;;;;;4.18;3.78;;;;;;;;;;5050653;28;20225;-77
2021/06/06 10:06:37;;;;;;;5.50;3.40;;;;;;;;;;5056317;28;20177;-76
2021/06/06 10:09:10;;;;;;;6.57;3.80;;;;;;;;;;5051785;28;20264;-78
2021/06/06 10:11:39;;;;;;;5.47;3.53;;;;;;;;;;5053304;28;20801;-79
2021/06/06 10:14:05;;;;;;;3.30;2.65;;;;;;;;;;5054402;28;20209;-79
2021/06/06 10:16:33;;;;;;;6.28;4.53;;;;;;;;;;5053931;28;20185;-78
2021/06/06 10:19:12;;;;;;;5.05;1.90;;;;;;;;;;5053497;28;20200;-73
2021/06/06 10:21:38;;;;;;;2.03;1.58;;;;;;;;;;5060639;28;20209;-75
2021/06/06 10:24:06;;;;;;;4.57;2.30;;;;;;;;;;5048985;28;20533;-80
2021/06/06 10:26:31;;;;;;;3.80;2.22;;;;;;;;;;5057250;28;20176;-78
2021/06/06 10:29:00;;;;;;;2.97;2.07;;;;;;;;;;5050908;28;20235;-75
2021/06/06 10:31:36;;;;;;;3.97;2.42;;;;;;;;;;5052921;28;20208;-77
2021/06/06 10:34:31;;;;;;;3.17;1.58;;;;;;;;;;5049197;28;20205;-77
2021/06/06 10:36:56;;;;;;;2.92;1.80;;;;;;;;;;5047636;28;20200;-73
2021/06/06 10:39:27;;;;;;;2.78;1.65;;;;;;;;;;5054889;28;20208;-70
2021/06/06 10:42:08;;;;;;;6.38;2.00;;;;;;;;;;5060505;28;20173;-76
2021/06/06 10:44:44;;;;;;;3.38;1.80;;;;;;;;;;5054407;28;20188;-77
2021/06/06 10:47:28;;;;;;;2.55;1.55;;;;;;;;;;5054646;28;20723;-78
2021/06/06 10:49:55;;;;;;;4.53;2.30;;;;;;;;;;5055103;28;20723;-77
2021/06/06 10:52:24;;;;;;;3.25;2.00;;;;;;;;;;5061847;28;21172;-78
2021/06/06 10:54:57;;;;;;;5.63;2.47;;;;;;;;;;5059476;28;20173;-77
2021/06/06 10:57:25;;;;;;;4.78;2.00;;;;;;;;;;5062536;28;20172;-77
2021/06/06 10:59:53;;;;;;;2.47;1.50;;;;;;;;;;5056360;28;20219;-78
2021/06/06 11:02:36;;;;;;;3.00;2.10;;;;;;;;;;5058969;28;20177;-78
2021/06/06 11:05:21;;;;;;;3.97;2.30;;;;;;;;;;5048583;28;20180;-74
2021/06/06 11:07:46;;;;;;;2.85;1.90;;;;;;;;;;5055880;28;20181;-76
2021/06/06 11:10:21;;;;;;;4.83;1.67;;;;;;;;;;5058471;28;20526;-73
2021/06/06 11:12:48;;;;;;;5.35;1.42;;;;;;;;;;5051070;28;20533;-73
2021/06/06 11:15:19;;;;;;;1.58;1.48;;;;;;;;;;5050606;28;20199;-72
2021/06/06 11:17:44;;;;;;;1.83;1.55;;;;;;;;;;5051454;28;20173;-72
2021/06/06 11:20:16;;;;;;;3.10;1.60;;;;;;;;;;5052445;28;20208;-73
2021/06/06 11:22:43;;;;;;;1.80;1.17;;;;;;;;;;5053661;28;20438;-72
2021/06/06 11:25:24;;;;;;;2.95;1.10;;;;;;;;;;5050952;28;20183;-72
2021/06/06 11:27:55;;;;;;;4.38;1.77;;;;;;;;;;5048279;28;20178;-73
2021/06/06 11:30:20;;;;;;;2.80;1.30;;;;;;;;;;5053327;28;20499;-72
2021/06/06 11:32:58;;;;;;;3.00;1.08;;;;;;;;;;5063137;28;20327;-72
2021/06/06 11:35:23;;;;;;;2.13;1.10;;;;;;;;;;5049418;28;20186;-72
2021/06/06 11:37:50;;;;;;;5.13;0.85;;;;;;;;;;5049338;28;20239;-71
2021/06/06 11:40:18;;;;;;;2.50;0.90;;;;;;;;;;5056511;28;20208;-71
2021/06/06 11:42:43;;;;;;;1.38;0.70;;;;;;;;;;5049647;28;21699;-71
2021/06/06 11:45:31;;;;;;;1.92;0.70;;;;;;;;;;5050167;28;20315;-72
2021/06/06 11:47:59;;;;;;;3.70;1.17;;;;;;;;;;5048702;28;20276;-72
2021/06/06 11:50:24;;;;;;;4.15;1.25;;;;;;;;;;5050699;28;20177;-72
2021/06/06 11:53:08;;;;;;;1.33;0.80;;;;;;;;;;5051403;28;21000;-71
2021/06/06 11:55:41;;;;;;;2.85;0.85;;;;;;;;;;5055609;28;20263;-71
2021/06/06 11:58:15;;;;;;;1.30;1.00;;;;;;;;;;5051040;28;20190;-71
2021/06/06 12:00:42;;;;;;;1.95;1.13;;;;;;;;;;5049911;28;20169;-71
2021/06/06 12:03:08;;;;;;;2.05;0.80;;;;;;;;;;5050138;28;20713;-71
2021/06/06 12:05:34;;;;;;;1.67;0.75;;;;;;;;;;5051661;28;20226;-71
2021/06/06 12:08:10;;;;;;;2.47;0.80;;;;;;;;;;5049549;28;20196;-72
2021/06/06 12:10:38;;;;;;;1.90;0.70;;;;;;;;;;5050336;28;20259;-72
2021/06/06 12:13:06;;;;;;;2.60;0.88;;;;;;;;;;5051803;28;20216;-72
2021/06/06 12:15:34;;;;;;;2.08;0.88;;;;;;;;;;5055037;28;20239;-72
2021/06/06 12:18:12;;;;;;;1.95;0.70;;;;;;;;;;5053318;28;20224;-71
2021/06/06 12:20:48;;;;;;;1.15;0.57;;;;;;;;;;5047676;28;20184;-71
2021/06/06 12:23:13;;;;;;;1.38;0.80;;;;;;;;;;5053509;28;20666;-72
2021/06/06 12:25:38;;;;;;;1.80;0.60;;;;;;;;;;5050652;28;20206;-72
2021/06/06 12:28:03;;;;;;;3.03;0.85;;;;;;;;;;5053533;28;20173;-72
2021/06/06 12:30:34;;;;;;;2.30;0.80;;;;;;;;;;5057881;28;20176;-71
2021/06/06 12:33:05;;;;;;;2.63;0.90;;;;;;;;;;5053681;28;20278;-71
2021/06/06 12:35:32;;;;;;;2.47;0.80;;;;;;;;;;5056854;28;20184;-71
2021/06/06 12:37:59;;;;;;;1.50;0.50;;;;;;;;;;5060543;28;20186;-72
2021/06/06 12:40:26;;;;;;;2.65;0.70;;;;;;;;;;5057278;28;20288;-72
2021/06/06 12:42:55;;;;;;;2.13;1.08;;;;;;;;;;5055059;28;20205;-73
2021/06/06 12:45:21;;;;;;;1.95;0.60;;;;;;;;;;5054772;28;20213;-73
2021/06/06 12:47:46;;;;;;;4.68;0.90;;;;;;;;;;5055620;28;20287;-73
2021/06/06 12:50:11;;;;;;;2.13;0.57;;;;;;;;;;5064371;28;20182;-72
2021/06/06 12:52:36;;;;;;;2.37;0.80;;;;;;;;;;5084277;28;20388;-73
2021/06/06 12:55:22;;;;;;;0.80;0.60;;;;;;;;;;5072423;28;20425;-73
2021/06/06 12:57:58;;;;;;;2.30;0.60;;;;;;;;;;5052492;28;20205;-73
2021/06/06 13:00:32;;;;;;;0.93;0.43;;;;;;;;;;5052159;28;20668;-73
2021/06/06 13:02:58;;;;;;;0.70;0.30;;;;;;;;;;5052923;28;20253;-73
2021/06/06 13:05:29;;;;;;;0.90;0.57;;;;;;;;;;5057221;28;20171;-73
2021/06/06 13:07:58;;;;;;;2.58;0.57;;;;;;;;;;5051688;28;20220;-73
2021/06/06 13:10:31;;;;;;;1.67;0.73;;;;;;;;;;5052810;28;20275;-73
2021/06/06 13:12:56;;;;;;;2.70;0.80;;;;;;;;;;5061331;28;20208;-73
2021/06/06 13:15:37;;;;;;;1.58;0.80;;;;;;;;;;5052126;28;20318;-73
2021/06/06 13:18:05;;;;;;;0.75;0.60;;;;;;;;;;5055262;28;20183;-73
2021/06/06 13:20:32;;;;;;;2.45;0.68;;;;;;;;;;5053239;28;20707;-73
2021/06/06 13:22:59;;;;;;;2.88;1.52;;;;;;;;;;5057004;28;20202;-73
2021/06/06 13:25:28;;;;;;;1.23;0.77;;;;;;;;;;5052783;28;20169;-73
2021/06/06 13:27:53;;;;;;;1.60;0.60;;;;;;;;;;5052166;28;20182;-73
2021/06/06 13:30:21;;;;;;;2.53;0.80;;;;;;;;;;5054935;28;20188;-72
2021/06/06 13:32:54;;;;;;;3.25;0.73;;;;;;;;;;5052345;28;20445;-72
2021/06/06 13:35:19;;;;;;;1.58;0.68;;;;;;;;;;5050153;28;20196;-73
2021/06/06 13:37:45;;;;;;;3.53;0.90;;;;;;;;;;5051219;28;20541;-73
2021/06/06 13:40:22;;;;;;;0.93;0.50;;;;;;;;;;5052178;28;20198;-73
2021/06/06 13:42:48;;;;;;;0.77;0.50;;;;;;;;;;5055140;28;20207;-72
2021/06/06 13:45:13;;;;;;;1.48;0.50;;;;;;;;;;5050545;28;20176;-73
2021/06/06 13:47:39;;;;;;;2.05;0.57;;;;;;;;;;5052780;28;20213;-73
2021/06/06 13:50:06;;;;;;;2.72;1.20;;;;;;;;;;5051222;28;20662;-73
2021/06/06 13:52:31;;;;;;;2.22;0.70;;;;;;;;;;5052010;28;20217;-73
2021/06/06 13:54:56;;;;;;;2.40;0.70;;;;;;;;;;5050016;28;20261;-73
2021/06/06 13:57:22;;;;;;;2.42;1.45;;;;;;;;;;5050967;28;20255;-72
2021/06/06 13:59:47;;;;;;;1.70;0.97;;;;;;;;;;5050275;28;20231;-73
2021/06/06 14:02:13;;;;;;;1.27;0.40;;;;;;;;;;5052787;28;20192;-73
2021/06/06 14:04:39;;;;;;;1.13;0.60;;;;;;;;;;5049024;28;20438;-73
2021/06/06 14:07:05;;;;;;;1.48;0.40;;;;;;;;;;5050673;28;20543;-73
2021/06/06 14:09:30;;;;;;;2.72;0.60;;;;;;;;;;5051690;28;20177;-73
2021/06/06 14:11:58;;;;;;;1.23;0.60;;;;;;;;;;5052200;28;20174;-73
2021/06/06 14:14:23;;;;;;;1.40;0.50;;;;;;;;;;5051760;28;20458;-73
2021/06/06 14:16:48;;;;;;;2.00;0.70;;;;;;;;;;5061195;28;20236;-73
2021/06/06 14:19:14;;;;;;;1.67;0.47;;;;;;;;;;5054693;28;20213;-73
2021/06/06 14:21:40;;;;;;;1.02;0.85;;;;;;;;;;5058511;28;20419;-73
2021/06/06 14:24:06;;;;;;;1.58;0.40;;;;;;;;;;5058239;28;20212;-73
2021/06/06 14:26:34;;;;;;;0.73;0.60;;;;;;;;;;5053103;28;20188;-73
2021/06/06 14:29:00;;;;;;;1.35;0.47;;;;;;;;;;5051767;28;20192;-74
2021/06/06 14:31:25;;;;;;;2.22;0.50;;;;;;;;;;5052129;28;20268;-73
2021/06/06 14:33:53;;;;;;;1.95;0.65;;;;;;;;;;5053583;28;20232;-73